Yochow — VROI6 — position and weather

sailwx.info

Track history (hours):
 
Tides and Currents Weather Stations Pressure Air Temp Water Temp Dewpoint Dewpoint Depression Visibility Wind Speed Wind Dir Waves Ship Positions

Yochow

Last reported at 2018-Jun-22 13:43 UTC. Time now 2018-Jun-22 22:57 UTC.
Position N 29°44' W 095°17'.

Length 180 m; draft 7 m.

Type: Cargo ship. MMSI: 477855600.

Date/timePositionNaut miles runAvg speedWind from/ knotsBaromVisibWave heightAir tempDewpointWater temp
2018-Jun-22 13:43N 29°44' W 095°17'0 0.0
2018-Jun-22 08:07N 29°44' W 095°17'0 0.0
2018-Jun-22 07:49N 29°44' W 095°17'0 0.0
2018-Jun-22 07:25N 29°44' W 095°17'0 0.0
2018-Jun-22 07:01N 29°44' W 095°17'0 0.0
2018-Jun-22 06:22N 29°44' W 095°17'0 0.0
2018-Jun-22 05:52N 29°44' W 095°17'0 0.0
2018-Jun-22 05:28N 29°44' W 095°17'0 0.0
2018-Jun-22 05:01N 29°44' W 095°17'0 0.0
2018-Jun-22 04:21N 29°44' W 095°17'0 0.0
2018-Jun-22 03:55N 29°44' W 095°17'0 0.0
2018-Jun-22 03:22N 29°44' W 095°17'0 0.0
2018-Jun-20 01:42N 29°44' W 095°17'  
2018-Jun-13 06:17N 29°46' W 095°05'3 8.3
2018-Jun-13 05:57N 29°44' W 095°03'3 7.5
2018-Jun-13 05:30N 29°42' W 094°60'4 8.2
2018-Jun-13 05:00N 29°38' W 094°58'5 9.7
2018-Jun-13 04:31N 29°34' W 094°55'611.5
2018-Jun-13 04:00N 29°29' W 094°52'510.8
2018-Jun-13 03:30N 29°24' W 094°49'5 9.6
2018-Jun-13 03:00N 29°21' W 094°45'511.0
2018-Jun-13 02:30N 29°19' W 094°39'611.3
2018-Jun-13 01:59N 29°16' W 094°33'713.6
2018-Jun-13 01:29N 29°12' W 094°27'612.2
2018-Jun-13 00:59N 29°06' W 094°25'813.7
2018-Jun-13 00:24N 28°58' W 094°25'1012.9
2018-Jun-12 23:38N 28°48' W 094°25'  
Track history (hours):
 
Tides and Currents Weather Stations Pressure Air Temp Water Temp Dewpoint Dewpoint Depression Visibility Wind Speed Wind Dir Waves Ship Positions

Yochow

Last reported at 2018-Jun-22 13:43 UTC. Time now 2018-Jun-22 22:57 UTC.
Position N 29°44' W 095°17'.

Length 180 m; draft 7 m.

Type: Cargo ship. MMSI: 477855600.

Date/timePositionNaut miles runAvg speedWind from/ knotsBaromVisibWave heightAir tempDewpointWater temp
2018-Jun-22 13:43N 29°44' W 095°17'0 0.0
2018-Jun-22 08:07N 29°44' W 095°17'0 0.0
2018-Jun-22 07:49N 29°44' W 095°17'0 0.0
2018-Jun-22 07:25N 29°44' W 095°17'0 0.0
2018-Jun-22 07:01N 29°44' W 095°17'0 0.0
2018-Jun-22 06:22N 29°44' W 095°17'0 0.0
2018-Jun-22 05:52N 29°44' W 095°17'0 0.0
2018-Jun-22 05:28N 29°44' W 095°17'0 0.0
2018-Jun-22 05:01N 29°44' W 095°17'0 0.0
2018-Jun-22 04:21N 29°44' W 095°17'0 0.0
2018-Jun-22 03:55N 29°44' W 095°17'0 0.0
2018-Jun-22 03:22N 29°44' W 095°17'0 0.0
2018-Jun-20 01:42N 29°44' W 095°17'  
2018-Jun-13 06:17N 29°46' W 095°05'3 8.3
2018-Jun-13 05:57N 29°44' W 095°03'3 7.5
2018-Jun-13 05:30N 29°42' W 094°60'4 8.2
2018-Jun-13 05:00N 29°38' W 094°58'5 9.7
2018-Jun-13 04:31N 29°34' W 094°55'611.5
2018-Jun-13 04:00N 29°29' W 094°52'510.8
2018-Jun-13 03:30N 29°24' W 094°49'5 9.6
2018-Jun-13 03:00N 29°21' W 094°45'511.0
2018-Jun-13 02:30N 29°19' W 094°39'611.3
2018-Jun-13 01:59N 29°16' W 094°33'713.6
2018-Jun-13 01:29N 29°12' W 094°27'612.2
2018-Jun-13 00:59N 29°06' W 094°25'813.7
2018-Jun-13 00:24N 28°58' W 094°25'1012.9
2018-Jun-12 23:38N 28°48' W 094°25'  

Dump ship's entire track history